Time;durP1;ratioP1;P1;durP2;ratioP2;P2;SDS_P1;SDS_P2;PMS_P1;PMS_P2;Temp;Humidity;BMP_temperature;BMP_pressure;BME280_temperature;BME280_humidity;BME280_pressure;Samples;Min_cycle;Max_cycle;Signal;HPM_P1;HPM_P2
2021/04/10 00:01:11;;;;;;;18.90;13.47;;;;;;;5.00;61.43;97675.31;5038572;28;20207;-72
2021/04/10 00:03:39;;;;;;;13.50;10.47;;;;;;;4.94;61.60;97679.34;5039427;28;20199;-72
2021/04/10 00:06:06;;;;;;;6.60;6.10;;;;;;;4.86;62.21;97680.00;5041116;28;20231;-71
2021/04/10 00:08:33;;;;;;;6.80;5.93;;;;;;;4.86;62.12;97677.38;5040167;28;20200;-72
2021/04/10 00:11:00;;;;;;;7.57;5.47;;;;;;;4.63;62.79;97680.22;5039140;28;20636;-73
2021/04/10 00:13:27;;;;;;;8.10;5.83;;;;;;;4.60;62.70;97677.88;5038848;28;20303;-72
2021/04/10 00:15:54;;;;;;;5.47;5.07;;;;;;;4.56;62.24;97673.84;5040434;28;20199;-72
2021/04/10 00:18:22;;;;;;;5.93;5.33;;;;;;;4.49;62.55;97673.56;5040030;28;20234;-72
2021/04/10 00:20:49;;;;;;;6.13;5.60;;;;;;;4.62;62.27;97677.75;5034360;28;20224;-72
2021/04/10 00:23:17;;;;;;;6.40;5.80;;;;;;;4.40;62.76;97684.84;5038122;28;20211;-72
2021/04/10 00:25:44;;;;;;;5.97;5.47;;;;;;;4.30;63.38;97679.56;5040311;28;20245;-72
2021/04/10 00:28:11;;;;;;;5.83;5.40;;;;;;;4.20;63.55;97682.16;5039537;28;20286;-73
2021/04/10 00:30:38;;;;;;;6.63;5.20;;;;;;;4.13;64.06;97686.25;5037342;28;20232;-72
2021/04/10 00:33:05;;;;;;;5.90;5.17;;;;;;;4.22;64.00;97676.78;5041089;28;20207;-73
2021/04/10 00:35:35;;;;;;;6.47;5.87;;;;;;;4.38;62.98;97671.03;5037656;28;20204;-72
2021/04/10 00:38:02;;;;;;;6.80;5.27;;;;;;;4.37;62.55;97672.00;5038865;28;20203;-72
2021/04/10 00:40:29;;;;;;;11.70;6.13;;;;;;;4.37;62.65;97674.63;5039669;28;20228;-71
2021/04/10 00:42:56;;;;;;;5.83;5.33;;;;;;;4.47;61.92;97677.28;5039574;28;20211;-72
2021/04/10 00:45:23;;;;;;;5.07;4.67;;;;;;;4.36;62.75;97667.72;5038854;28;20311;-72
2021/04/10 00:47:50;;;;;;;5.30;4.90;;;;;;;4.45;62.04;97672.16;5037428;28;20208;-73
2021/04/10 00:50:17;;;;;;;5.60;5.17;;;;;;;4.37;62.18;97668.56;5038830;28;20231;-73
2021/04/10 00:52:45;;;;;;;6.83;5.30;;;;;;;4.28;62.00;97663.13;5038116;28;20208;-72
2021/04/10 00:55:13;;;;;;;5.93;5.20;;;;;;;4.36;61.55;97667.72;5039248;28;20202;-72
2021/04/10 00:57:40;;;;;;;5.03;4.63;;;;;;;4.32;61.70;97661.06;5039303;28;20199;-71
2021/04/10 01:00:08;;;;;;;7.97;4.97;;;;;;;4.31;61.62;97657.59;5042413;28;20228;-72
2021/04/10 01:02:35;;;;;;;5.27;4.87;;;;;;;4.27;62.13;97661.47;5042771;28;20204;-72
2021/04/10 01:05:04;;;;;;;5.50;5.00;;;;;;;4.30;61.69;97663.00;5044111;28;20230;-72
2021/04/10 01:07:31;;;;;;;7.07;5.53;;;;;;;4.31;62.23;97656.78;5044275;28;20212;-73
2021/04/10 01:09:59;;;;;;;6.23;5.63;;;;;;;4.26;62.26;97656.38;5038786;28;20242;-72
2021/04/10 01:12:46;;;;;;;5.37;4.97;;;;;;;4.15;62.40;97646.78;5041174;28;20216;-72
2021/04/10 01:15:20;;;;;;;6.60;5.90;;;;;;;4.16;62.77;97656.31;5040135;28;20199;-73
2021/04/10 01:17:52;;;;;;;5.43;4.93;;;;;;;4.17;62.25;97658.81;5040231;28;20218;-72
2021/04/10 01:20:46;;;;;;;5.43;5.03;;;;;;;4.27;62.28;97655.41;5041960;28;20227;-72
2021/04/10 01:23:37;;;;;;;6.10;5.30;;;;;;;4.28;61.93;97662.31;5040388;28;20204;-72
2021/04/10 01:26:19;;;;;;;6.07;5.47;;;;;;;4.22;62.52;97655.78;5044002;28;20231;-72
2021/04/10 01:28:53;;;;;;;6.00;5.50;;;;;;;4.27;61.94;97647.53;5041672;28;20203;-73
2021/04/10 01:31:23;;;;;;;5.57;5.07;;;;;;;4.28;62.21;97647.38;5042562;28;20222;-73
2021/04/10 01:33:53;;;;;;;5.40;4.90;;;;;;;4.20;62.46;97645.44;5039175;28;20203;-72
2021/04/10 01:36:22;;;;;;;5.90;4.80;;;;;;;4.24;61.86;97647.81;5041151;28;20215;-72
2021/04/10 01:38:52;;;;;;;6.67;5.90;;;;;;;4.21;61.93;97648.88;5041351;28;20219;-72
2021/04/10 01:41:19;;;;;;;5.60;5.10;;;;;;;4.30;61.42;97640.22;5044064;28;20207;-72
2021/04/10 01:43:46;;;;;;;5.63;4.80;;;;;;;4.12;62.57;97649.69;5043597;28;20203;-72
2021/04/10 01:46:15;;;;;;;6.10;5.50;;;;;;;4.16;62.36;97657.13;5041881;28;20223;-72
2021/04/10 01:48:43;;;;;;;5.27;4.87;;;;;;;4.15;62.73;97649.41;5041317;28;20208;-72
2021/04/10 01:51:11;;;;;;;4.83;4.43;;;;;;;4.14;62.34;97640.69;5041149;28;20211;-72
2021/04/10 01:53:38;;;;;;;4.93;4.57;;;;;;;4.10;62.80;97647.16;5037224;28;20207;-72
2021/04/10 01:56:06;;;;;;;4.50;4.13;;;;;;;4.07;63.06;97631.69;5042392;28;20196;-72
2021/04/10 01:58:33;;;;;;;6.60;5.07;;;;;;;3.98;63.14;97640.38;5043674;28;20207;-71
2021/04/10 02:01:00;;;;;;;5.53;5.13;;;;;;;4.08;62.92;97637.78;5042388;28;20691;-72
2021/04/10 02:03:29;;;;;;;7.30;6.03;;;;;;;4.13;62.74;97633.78;5041389;28;20218;-72
2021/04/10 02:05:57;;;;;;;5.83;5.17;;;;;;;4.09;63.25;97634.22;5042427;28;20223;-72
2021/04/10 02:08:25;;;;;;;5.00;4.50;;;;;;;4.22;62.50;97634.81;5039827;28;20230;-72
2021/04/10 02:10:53;;;;;;;6.97;4.73;;;;;;;4.24;62.78;97637.31;5043832;28;20227;-72
2021/04/10 02:13:21;;;;;;;5.03;4.20;;;;;;;4.33;61.97;97642.56;5041673;28;20663;-72
2021/04/10 02:15:51;;;;;;;4.60;4.20;;;;;;;4.25;62.82;97644.22;5039603;28;20223;-71
2021/04/10 02:18:19;;;;;;;4.67;4.37;;;;;;;4.19;62.96;97650.81;5039288;28;20713;-72
2021/04/10 02:20:47;;;;;;;4.63;4.33;;;;;;;4.22;62.89;97645.28;5041834;28;20249;-72
2021/04/10 02:23:14;;;;;;;5.83;4.40;;;;;;;4.11;63.67;97634.91;5042898;28;20220;-72
2021/04/10 02:25:42;;;;;;;5.67;4.83;;;;;;;4.16;63.55;97641.41;5040190;28;20238;-72
2021/04/10 02:28:09;;;;;;;5.23;4.60;;;;;;;4.14;63.05;97635.44;5041062;28;20204;-72
2021/04/10 02:30:36;;;;;;;4.87;4.43;;;;;;;4.17;62.72;97637.00;5042562;28;20239;-73
2021/04/10 02:33:04;;;;;;;4.83;4.33;;;;;;;4.27;62.78;97631.78;5043739;28;20207;-72
2021/04/10 02:35:35;;;;;;;4.47;4.00;;;;;;;4.31;62.70;97626.13;5041767;28;20568;-73
2021/04/10 02:38:05;;;;;;;4.93;4.53;;;;;;;4.45;62.34;97619.69;5039918;28;20230;-72
2021/04/10 02:40:36;;;;;;;4.63;4.23;;;;;;;4.42;61.94;97622.56;5042203;28;20222;-72
2021/04/10 02:43:04;;;;;;;4.40;4.10;;;;;;;4.49;60.95;97615.81;5038883;28;20206;-72
2021/04/10 02:45:32;;;;;;;4.87;4.30;;;;;;;4.52;61.08;97612.09;5039321;28;20238;-72
2021/04/10 02:48:02;;;;;;;4.87;4.47;;;;;;;4.59;60.52;97610.59;5042246;28;20351;-72
2021/04/10 02:50:30;;;;;;;4.40;4.10;;;;;;;4.71;60.32;97602.59;5041188;28;20238;-73
2021/04/10 02:52:59;;;;;;;5.17;4.33;;;;;;;4.68;60.23;97608.97;5038794;28;20472;-70
2021/04/10 02:55:32;;;;;;;5.70;3.80;;;;;;;4.77;59.65;97612.56;5041585;28;20219;-72
2021/04/10 02:58:01;;;;;;;4.67;4.27;;;;;;;4.86;59.58;97606.50;5035405;28;20239;-72
2021/04/10 03:00:29;;;;;;;6.07;4.73;;;;;;;4.87;59.31;97602.91;5041046;28;20232;-72
2021/04/10 03:02:57;;;;;;;4.10;3.90;;;;;;;4.97;59.12;97596.81;5040347;28;20203;-72
2021/04/10 03:05:24;;;;;;;5.27;3.67;;;;;;;5.06;59.16;97595.97;5040945;28;20231;-71
2021/04/10 03:07:52;;;;;;;7.20;4.60;;;;;;;5.09;58.83;97600.94;5038735;28;20203;-71
2021/04/10 03:10:20;;;;;;;4.60;4.20;;;;;;;5.10;58.87;97594.72;5040602;28;20598;-73
2021/04/10 03:12:48;;;;;;;4.87;4.47;;;;;;;5.20;58.76;97606.09;5041472;28;20204;-72
2021/04/10 03:15:16;;;;;;;5.23;4.33;;;;;;;5.22;59.44;97609.41;5040618;28;20215;-70
2021/04/10 03:17:44;;;;;;;4.37;4.00;;;;;;;5.30;59.38;97610.50;5042229;28;20282;-68
2021/04/10 03:20:13;;;;;;;4.20;3.90;;;;;;;5.38;58.35;97605.34;5041630;28;20231;-69
2021/04/10 03:22:42;;;;;;;4.60;4.23;;;;;;;5.32;59.20;97604.13;5042995;28;20215;-74
2021/04/10 03:25:11;;;;;;;4.07;3.73;;;;;;;5.25;59.26;97597.75;5040642;28;20762;-70
2021/04/10 03:27:38;;;;;;;5.03;4.53;;;;;;;5.33;59.11;97611.06;5041818;28;20207;-72
2021/04/10 03:30:08;;;;;;;4.60;4.23;;;;;;;5.23;60.45;97610.22;5041514;28;20258;-72
2021/04/10 03:32:36;;;;;;;4.43;4.10;;;;;;;5.26;60.02;97603.84;5038080;28;20218;-71
2021/04/10 03:35:03;;;;;;;4.60;4.20;;;;;;;5.30;59.92;97602.59;5039341;28;20210;-71
2021/04/10 03:37:30;;;;;;;4.07;3.70;;;;;;;5.37;59.17;97606.31;5040995;28;20208;-72
2021/04/10 03:39:58;;;;;;;4.03;3.80;;;;;;;5.41;58.83;97607.69;5041965;28;20219;-73
2021/04/10 03:42:33;;;;;;;5.27;4.20;;;;;;;5.53;57.91;97597.88;5040622;28;20211;-73
2021/04/10 03:45:00;;;;;;;7.13;4.67;;;;;;;5.63;57.82;97603.91;5040452;28;20198;-74
2021/04/10 03:47:48;;;;;;;5.90;4.00;;;;;;;5.69;57.76;97596.47;5039186;28;20812;-74
2021/04/10 03:50:15;;;;;;;5.60;3.80;;;;;;;5.72;58.02;97580.41;5038496;28;20758;-74
2021/04/10 03:52:42;;;;;;;4.20;3.80;;;;;;;5.80;57.11;97578.69;5040726;28;20207;-73
2021/04/10 03:55:11;;;;;;;4.57;4.13;;;;;;;5.86;57.94;97585.19;5036536;28;20196;-73
2021/04/10 03:57:38;;;;;;;4.30;3.90;;;;;;;5.76;58.04;97584.41;5040258;28;20308;-73
2021/04/10 04:00:07;;;;;;;4.47;4.17;;;;;;;5.96;57.16;97581.69;5040276;28;20262;-72
2021/04/10 04:02:34;;;;;;;3.87;3.40;;;;;;;6.01;57.38;97596.09;5023383;28;20237;-72
2021/04/10 04:05:02;;;;;;;4.50;4.10;;;;;;;5.86;58.33;97598.34;5038851;28;20310;-72
2021/04/10 04:07:29;;;;;;;3.77;3.50;;;;;;;5.76;58.84;97603.63;5040146;28;20861;-72
2021/04/10 04:09:56;;;;;;;4.83;4.30;;;;;;;5.83;59.53;97603.03;5035777;28;20604;-71
2021/04/10 04:12:23;;;;;;;4.30;4.00;;;;;;;5.83;59.74;97603.88;5038575;28;20226;-71
2021/04/10 04:14:50;;;;;;;6.13;4.47;;;;;;;5.85;60.26;97606.34;5041114;28;20204;-72
2021/04/10 04:17:17;;;;;;;4.63;4.23;;;;;;;5.75;59.56;97611.66;5040158;28;20206;-73
2021/04/10 04:19:44;;;;;;;4.60;4.20;;;;;;;5.87;59.29;97615.78;5039975;28;20234;-72
2021/04/10 04:22:12;;;;;;;4.40;4.07;;;;;;;5.97;58.76;97610.47;5040283;28;20233;-74
2021/04/10 04:24:39;;;;;;;6.87;4.60;;;;;;;5.98;59.07;97617.41;5039871;28;20204;-72
2021/04/10 04:27:06;;;;;;;4.60;4.20;;;;;;;6.09;58.74;97616.44;5041022;28;20251;-73
2021/04/10 04:29:34;;;;;;;4.60;4.23;;;;;;;6.12;58.81;97618.75;5038532;28;20238;-73
2021/04/10 04:32:01;;;;;;;5.07;4.67;;;;;;;6.19;58.98;97632.16;5039292;28;20977;-74
2021/04/10 04:34:28;;;;;;;5.00;4.53;;;;;;;6.16;59.25;97633.28;5044902;28;20204;-73
2021/04/10 04:36:55;;;;;;;5.10;4.70;;;;;;;6.11;62.44;97630.25;5042124;28;20231;-74
2021/04/10 04:39:23;;;;;;;4.97;4.57;;;;;;;5.94;65.23;97635.25;5042992;28;20219;-72
2021/04/10 04:41:50;;;;;;;4.67;4.27;;;;;;;5.78;65.97;97641.13;5042404;28;20571;-71
2021/04/10 04:44:17;;;;;;;4.47;4.07;;;;;;;5.76;67.03;97640.44;5040774;28;20204;-71
2021/04/10 04:46:44;;;;;;;5.00;4.33;;;;;;;5.63;68.76;97642.53;5041451;28;20228;-69
2021/04/10 04:49:11;;;;;;;4.97;4.63;;;;;;;5.59;70.68;97643.78;5043087;28;20219;-72
2021/04/10 04:51:38;;;;;;;4.77;4.37;;;;;;;5.50;70.52;97648.94;5039514;28;20205;-70
2021/04/10 04:54:05;;;;;;;5.43;5.00;;;;;;;5.50;68.53;97648.94;5041565;28;20210;-74
2021/04/10 04:56:33;;;;;;;5.17;4.77;;;;;;;5.61;70.09;97652.38;5042876;28;20571;-70
2021/04/10 04:59:00;;;;;;;5.10;4.60;;;;;;;5.60;70.23;97650.72;5041623;28;20773;-71
2021/04/10 05:01:27;;;;;;;5.37;4.80;;;;;;;5.68;69.62;97650.81;5040815;28;20214;-71
2021/04/10 05:03:55;;;;;;;5.30;4.80;;;;;;;5.65;69.94;97657.19;5041126;28;20451;-73
2021/04/10 05:06:22;;;;;;;5.50;5.00;;;;;;;5.73;69.11;97661.75;5039205;28;20235;-71
2021/04/10 05:08:49;;;;;;;5.10;4.70;;;;;;;5.87;68.32;97662.25;5039689;28;20852;-70
2021/04/10 05:11:16;;;;;;;5.63;5.13;;;;;;;5.89;67.42;97665.59;5042918;28;20583;-72
2021/04/10 05:13:44;;;;;;;5.20;4.67;;;;;;;5.92;67.39;97670.59;5041347;28;20609;-71
2021/04/10 05:16:10;;;;;;;5.50;5.00;;;;;;;5.94;67.43;97673.91;5038703;28;20671;-71
2021/04/10 05:18:37;;;;;;;5.47;4.97;;;;;;;6.00;66.40;97677.75;5040534;28;20204;-70
2021/04/10 05:21:05;;;;;;;6.73;4.90;;;;;;;6.23;65.85;97684.34;5040633;28;20208;-70
2021/04/10 05:23:32;;;;;;;5.37;4.77;;;;;;;6.17;65.74;97687.56;5037306;28;20364;-71
2021/04/10 05:25:59;;;;;;;4.90;4.50;;;;;;;6.20;66.18;97689.91;5042276;28;20843;-70
2021/04/10 05:28:26;;;;;;;5.57;5.10;;;;;;;6.35;65.03;97690.28;5039839;28;20212;-71
2021/04/10 05:30:54;;;;;;;5.40;4.83;;;;;;;6.54;64.26;97692.97;5042235;28;20242;-71
2021/04/10 05:33:21;;;;;;;5.63;5.03;;;;;;;6.55;65.08;97692.81;5042345;28;20615;-70
2021/04/10 05:35:48;;;;;;;5.50;5.00;;;;;;;6.69;63.91;97691.50;5041299;28;20200;-70
2021/04/10 05:38:15;;;;;;;5.10;4.60;;;;;;;6.64;64.81;97697.22;5042306;28;20207;-70
2021/04/10 05:40:42;;;;;;;4.87;4.47;;;;;;;6.78;64.98;97697.69;5038717;28;20224;-71
2021/04/10 05:43:09;;;;;;;4.97;4.47;;;;;;;6.79;63.53;97686.19;5041469;28;20695;-70
2021/04/10 05:45:36;;;;;;;6.27;5.67;;;;;;;6.72;64.95;97680.66;5037151;28;20224;-70
2021/04/10 05:48:05;;;;;;;5.70;5.07;;;;;;;6.84;64.85;97691.84;5033865;28;20207;-71
2021/04/10 05:50:32;;;;;;;5.53;4.80;;;;;;;6.84;65.56;97689.19;5037271;28;20220;-69
2021/04/10 05:52:59;;;;;;;5.60;5.10;;;;;;;6.72;66.41;97701.72;5042928;28;20215;-70
2021/04/10 05:55:26;;;;;;;5.17;4.67;;;;;;;6.76;66.29;97694.38;5042295;28;20954;-70
2021/04/10 05:57:53;;;;;;;4.90;4.50;;;;;;;6.88;66.62;97698.47;5044543;28;20679;-69
2021/04/10 06:00:21;;;;;;;4.97;4.20;;;;;;;7.00;65.93;97693.81;5045990;28;20711;-70
2021/04/10 06:02:50;;;;;;;4.97;4.57;;;;;;;7.14;65.55;97689.00;5036949;28;20203;-70
2021/04/10 06:05:19;;;;;;;4.57;4.27;;;;;;;7.01;66.18;97695.47;5042641;28;20200;-70
2021/04/10 06:07:47;;;;;;;7.57;5.00;;;;;;;6.96;66.25;97697.72;5041811;28;20199;-67
2021/04/10 06:10:14;;;;;;;4.93;4.53;;;;;;;7.04;66.37;97708.34;5044287;28;20471;-70
2021/04/10 06:12:41;;;;;;;4.80;4.17;;;;;;;7.15;65.76;97706.47;5046068;28;20588;-69
2021/04/10 06:15:10;;;;;;;4.23;4.03;;;;;;;7.27;64.88;97712.34;5043314;28;20454;-70
2021/04/10 06:17:38;;;;;;;6.17;5.00;;;;;;;7.38;65.03;97715.59;5046723;28;20200;-70
2021/04/10 06:20:07;;;;;;;8.03;4.50;;;;;;;7.65;63.70;97718.31;5044832;28;20437;-68
2021/04/10 06:22:37;;;;;;;5.97;4.33;;;;;;;7.65;64.89;97719.16;5047759;28;20636;-71
2021/04/10 06:25:06;;;;;;;5.63;4.33;;;;;;;7.76;64.96;97709.34;5043978;28;20208;-69
2021/04/10 06:27:33;;;;;;;4.77;4.30;;;;;;;7.98;64.93;97713.28;5046398;28;20219;-69
2021/04/10 06:30:00;;;;;;;5.90;4.20;;;;;;;8.11;64.82;97716.31;5042623;28;20230;-70
2021/04/10 06:32:27;;;;;;;4.37;3.97;;;;;;;8.47;64.63;97725.13;5046351;28;20244;-71
2021/04/10 06:34:54;;;;;;;7.10;3.83;;;;;;;8.56;64.25;97726.88;5046803;28;20207;-68
2021/04/10 06:37:21;;;;;;;3.17;2.97;;;;;;;8.77;63.11;97721.19;5042611;28;20196;-70
2021/04/10 06:39:49;;;;;;;3.50;3.20;;;;;;;9.00;63.33;97720.56;5047255;28;20710;-69
2021/04/10 06:42:16;;;;;;;3.17;2.83;;;;;;;9.20;62.63;97726.41;5039968;28;20203;-69
2021/04/10 06:44:44;;;;;;;2.37;2.20;;;;;;;9.25;63.18;97724.09;5048267;28;20207;-71
2021/04/10 06:47:11;;;;;;;4.03;2.87;;;;;;;9.47;62.49;97732.41;5045536;28;20223;-68
2021/04/10 06:49:38;;;;;;;4.20;2.70;;;;;;;9.47;62.35;97727.13;5042189;28;20243;-70
2021/04/10 06:52:07;;;;;;;3.03;2.80;;;;;;;9.51;62.51;97731.09;5044743;28;20215;-70
2021/04/10 06:54:36;;;;;;;3.60;2.73;;;;;;;9.78;61.98;97728.31;5048302;28;20684;-70
2021/04/10 06:57:10;;;;;;;2.80;2.60;;;;;;;9.85;62.06;97731.97;5045607;28;20196;-71
2021/04/10 06:59:44;;;;;;;3.03;2.50;;;;;;;9.80;61.32;97735.09;5045909;28;20237;-71
2021/04/10 07:02:12;;;;;;;3.73;2.70;;;;;;;9.71;62.49;97738.75;5041675;28;20210;-67
2021/04/10 07:04:39;;;;;;;3.20;2.70;;;;;;;9.97;61.60;97735.06;5044745;28;20200;-70
2021/04/10 07:07:07;;;;;;;3.77;2.20;;;;;;;10.07;61.65;97734.91;5044647;28;20305;-69
2021/04/10 07:09:35;;;;;;;8.90;3.20;;;;;;;10.09;62.19;97731.13;5046191;28;20649;-70
2021/04/10 07:12:06;;;;;;;3.77;3.07;;;;;;;10.25;61.49;97737.38;5044604;28;20675;-69
2021/04/10 07:14:33;;;;;;;3.97;2.97;;;;;;;10.33;61.03;97737.34;5040163;28;20215;-69
2021/04/10 07:17:00;;;;;;;3.00;2.80;;;;;;;10.33;61.48;97741.84;5038572;28;20203;-69
2021/04/10 07:19:28;;;;;;;3.53;2.70;;;;;;;10.66;59.37;97744.44;5042910;28;20605;-69
2021/04/10 07:22:07;;;;;;;2.20;2.10;;;;;;;10.77;60.13;97748.50;5056514;28;20217;-70
2021/04/10 07:24:40;;;;;;;2.77;2.57;;;;;;;11.22;59.06;97748.81;5058475;28;20264;-71
2021/04/10 07:27:11;;;;;;;2.47;2.27;;;;;;;11.22;58.77;97743.50;5058618;28;20602;-70
2021/04/10 07:29:39;;;;;;;2.73;2.23;;;;;;;11.18;58.94;97744.88;5060845;28;20234;-71
2021/04/10 07:32:29;;;;;;;2.40;2.20;;;;;;;11.25;58.57;97744.00;5057543;28;20682;-70
2021/04/10 07:34:57;;;;;;;4.67;2.60;;;;;;;11.15;58.40;97751.34;5055914;28;20661;-70
2021/04/10 07:37:35;;;;;;;2.43;2.33;;;;;;;11.33;58.50;97756.38;5059855;28;20199;-70
2021/04/10 07:40:05;;;;;;;2.87;2.67;;;;;;;11.00;59.34;97760.03;5061255;28;20226;-71
2021/04/10 07:42:36;;;;;;;5.23;2.60;;;;;;;11.13;60.19;97763.94;5056987;28;20232;-69
2021/04/10 07:45:04;;;;;;;2.60;2.40;;;;;;;10.95;59.92;97767.69;5061493;28;20199;-71
2021/04/10 07:47:36;;;;;;;3.97;2.70;;;;;;;11.22;59.55;97770.88;5057262;28;20565;-69
2021/04/10 07:50:18;;;;;;;3.10;2.83;;;;;;;11.22;59.21;97775.34;5059706;28;20694;-70
2021/04/10 07:52:46;;;;;;;4.60;3.30;;;;;;;11.13;58.41;97771.91;5060463;28;20207;-71
2021/04/10 07:55:37;;;;;;;4.23;2.83;;;;;;;11.23;57.63;97783.16;5061965;28;20211;-70
2021/04/10 07:58:24;;;;;;;4.33;3.50;;;;;;;11.25;58.26;97782.94;5059340;28;20278;-69
2021/04/10 08:00:53;;;;;;;2.77;2.57;;;;;;;11.07;58.58;97784.03;5059827;28;20218;-70
2021/04/10 08:03:30;;;;;;;17.63;10.37;;;;;;;11.12;58.17;97783.50;5063362;28;20210;-71
2021/04/10 08:06:12;;;;;;;30.83;16.33;;;;;;;11.04;58.85;97791.50;5062453;28;20621;-69
2021/04/10 08:08:55;;;;;;;9.07;5.87;;;;;;;10.99;58.19;97789.38;5063919;28;20342;-70
2021/04/10 08:11:33;;;;;;;5.10;2.80;;;;;;;11.03;59.05;97798.66;5061995;28;20685;-69
2021/04/10 08:14:03;;;;;;;4.07;3.10;;;;;;;11.07;58.64;97807.06;5064211;28;20218;-70
2021/04/10 08:16:30;;;;;;;11.73;5.90;;;;;;;10.94;59.41;97799.66;5063924;28;20218;-71
2021/04/10 08:18:59;;;;;;;10.27;5.90;;;;;;;11.10;59.19;97804.91;5064333;28;20227;-69
2021/04/10 08:21:40;;;;;;;3.50;2.43;;;;;;;11.01;59.84;97811.25;5061564;28;20217;-69
2021/04/10 08:24:31;;;;;;;3.30;2.90;;;;;;;10.91;59.84;97814.09;5060173;28;20219;-68
2021/04/10 08:27:00;;;;;;;4.53;3.33;;;;;;;11.11;59.70;97803.06;5063037;28;20228;-70
2021/04/10 08:29:28;;;;;;;8.00;5.53;;;;;;;11.21;59.82;97805.53;5061487;28;20222;-70
2021/04/10 08:31:55;;;;;;;9.70;5.33;;;;;;;11.26;59.30;97814.63;5062011;28;20463;-70
2021/04/10 08:34:23;;;;;;;2.70;2.47;;;;;;;11.57;58.02;97820.94;5063256;28;20518;-69
2021/04/10 08:36:52;;;;;;;2.97;2.40;;;;;;;11.68;57.82;97819.72;5062818;28;20195;-70
2021/04/10 08:39:21;;;;;;;4.97;3.07;;;;;;;11.54;58.28;97826.59;5059459;28;20816;-70
2021/04/10 08:41:54;;;;;;;4.23;2.63;;;;;;;11.65;57.89;97820.88;5061873;28;20407;-70
2021/04/10 08:44:24;;;;;;;3.00;2.80;;;;;;;11.83;58.19;97827.75;5064296;28;20574;-71
2021/04/10 08:46:52;;;;;;;3.17;2.87;;;;;;;11.63;58.34;97827.38;5062931;28;20219;-71
2021/04/10 08:49:20;;;;;;;4.33;2.67;;;;;;;11.54;59.20;97824.75;5060993;28;20615;-70
2021/04/10 08:51:51;;;;;;;2.47;2.27;;;;;;;11.57;58.85;97835.03;5063408;28;20210;-70
2021/04/10 08:54:18;;;;;;;3.53;2.50;;;;;;;11.44;59.21;97835.59;5063228;28;20225;-69
2021/04/10 08:56:49;;;;;;;3.40;2.50;;;;;;;11.65;59.03;97841.31;5061760;28;20226;-69
2021/04/10 08:59:17;;;;;;;2.80;2.57;;;;;;;11.64;59.17;97839.66;5062363;28;20227;-70
2021/04/10 09:01:47;;;;;;;2.57;2.37;;;;;;;11.78;59.23;97841.53;5060891;28;20451;-70
2021/04/10 09:04:15;;;;;;;4.93;2.60;;;;;;;12.02;58.56;97842.44;5064088;28;20683;-71
2021/04/10 09:06:49;;;;;;;2.80;2.60;;;;;;;11.82;59.40;97842.84;5059821;28;20686;-71
2021/04/10 09:09:30;;;;;;;3.40;3.10;;;;;;;12.06;59.23;97838.41;5060323;28;20242;-73
2021/04/10 09:12:30;;;;;;;2.87;2.60;;;;;;;11.82;59.36;97836.72;5059049;28;20207;-71
2021/04/10 09:15:07;;;;;;;3.27;2.40;;;;;;;11.78;59.18;97849.50;4997618;28;20237;-71
2021/04/10 09:17:55;;;;;;;2.90;2.67;;;;;;;12.16;58.34;97852.28;4994856;28;20715;-72
2021/04/10 09:20:48;;;;;;;2.93;2.67;;;;;;;12.22;58.59;97849.91;5040654;28;20223;-69
2021/04/10 09:23:27;;;;;;;4.53;2.70;;;;;;;12.20;57.79;97858.06;5061306;28;20203;-73
2021/04/10 09:26:06;;;;;;;3.03;2.83;;;;;;;12.13;58.50;97854.47;5061849;28;20210;-72
2021/04/10 09:28:33;;;;;;;3.30;2.77;;;;;;;12.45;57.65;97853.38;5061511;28;20478;-72
2021/04/10 09:31:00;;;;;;;3.57;2.93;;;;;;;12.91;55.85;97845.47;5063424;28;20218;-70
2021/04/10 09:33:34;;;;;;;2.73;2.50;;;;;;;12.93;56.21;97859.41;5063534;28;20209;-72
2021/04/10 09:36:03;;;;;;;5.43;3.10;;;;;;;13.17;56.23;97856.47;5056923;28;20221;-72
2021/04/10 09:38:38;;;;;;;3.23;2.97;;;;;;;13.10;55.40;97860.88;5063221;28;20218;-72
2021/04/10 09:41:06;;;;;;;2.87;2.67;;;;;;;12.63;56.44;97862.84;5062500;28;20846;-72
2021/04/10 09:43:33;;;;;;;3.53;2.40;;;;;;;12.63;56.73;97867.34;5062853;28;20607;-71
2021/04/10 09:46:00;;;;;;;2.67;2.33;;;;;;;12.64;56.73;97859.19;5056816;28;20207;-72
2021/04/10 09:48:30;;;;;;;4.97;2.63;;;;;;;13.10;54.14;97846.75;5058429;28;20233;-72
2021/04/10 09:51:04;;;;;;;2.60;2.40;;;;;;;12.99;54.37;97864.00;5057883;28;20219;-72
2021/04/10 09:53:32;;;;;;;2.80;2.30;;;;;;;12.89;54.93;97858.94;5059408;28;20434;-71
2021/04/10 09:56:02;;;;;;;2.87;2.67;;;;;;;12.80;54.83;97862.69;5061674;28;20202;-71
2021/04/10 09:58:37;;;;;;;2.33;2.17;;;;;;;12.62;56.13;97860.38;5060957;28;20211;-72
2021/04/10 10:01:18;;;;;;;2.87;2.60;;;;;;;12.65;55.80;97863.47;5059476;28;20210;-73
2021/04/10 10:03:47;;;;;;;3.13;2.93;;;;;;;12.73;55.80;97867.91;5060501;28;20199;-72
2021/04/10 10:06:23;;;;;;;2.80;2.60;;;;;;;12.54;55.83;97859.44;5060923;28;20230;-73
2021/04/10 10:08:51;;;;;;;3.57;3.03;;;;;;;12.53;56.22;97871.09;5062756;28;20202;-72
2021/04/10 10:11:18;;;;;;;2.80;2.60;;;;;;;12.38;57.82;97872.88;5061881;28;20659;-71
2021/04/10 10:13:46;;;;;;;3.20;2.20;;;;;;;12.59;56.21;97865.06;5057937;28;20204;-72
2021/04/10 10:16:13;;;;;;;3.87;2.27;;;;;;;12.96;55.29;97867.84;5059638;28;21013;-72
2021/04/10 10:18:42;;;;;;;2.67;2.50;;;;;;;12.88;55.18;97862.59;5060747;28;20202;-72
2021/04/10 10:21:11;;;;;;;3.07;2.73;;;;;;;12.84;54.50;97886.06;5059876;28;20222;-71
2021/04/10 10:23:41;;;;;;;2.30;2.10;;;;;;;12.69;54.31;97875.44;5061425;28;20308;-71
2021/04/10 10:26:10;;;;;;;3.87;2.40;;;;;;;12.59;55.22;97866.88;5062141;28;20223;-73
2021/04/10 10:28:39;;;;;;;2.87;2.60;;;;;;;13.00;54.83;97860.34;5060204;28;20245;-72
2021/04/10 10:31:13;;;;;;;2.60;2.40;;;;;;;13.07;54.43;97863.06;5060866;28;20217;-71
2021/04/10 10:33:40;;;;;;;2.20;2.10;;;;;;;13.05;54.00;97865.94;5060648;28;20749;-72
2021/04/10 10:36:09;;;;;;;3.20;3.00;;;;;;;13.06;53.90;97869.41;5059310;28;20202;-72
2021/04/10 10:38:37;;;;;;;3.50;2.67;;;;;;;13.35;53.88;97865.91;5060381;28;20211;-71
2021/04/10 10:41:06;;;;;;;2.80;2.60;;;;;;;13.38;54.39;97862.88;5057494;28;20210;-72
2021/04/10 10:43:33;;;;;;;2.53;2.33;;;;;;;13.48;53.16;97865.31;5059175;28;20210;-71
2021/04/10 10:46:01;;;;;;;2.40;2.30;;;;;;;13.51;53.30;97861.44;5062516;28;20207;-72
2021/04/10 10:48:30;;;;;;;2.80;2.60;;;;;;;13.22;52.59;97858.59;5054207;28;20206;-72
2021/04/10 10:51:06;;;;;;;2.27;2.10;;;;;;;13.17;53.41;97850.34;5058028;28;20234;-72
2021/04/10 10:53:35;;;;;;;3.97;2.50;;;;;;;12.96;53.37;97849.22;5055211;28;20982;-72
2021/04/10 10:56:09;;;;;;;2.60;2.40;;;;;;;13.29;53.20;97850.69;5062553;28;20214;-72
2021/04/10 10:58:41;;;;;;;2.83;2.17;;;;;;;13.41;53.26;97856.34;5058263;28;20967;-71
2021/04/10 11:01:19;;;;;;;2.77;2.57;;;;;;;13.47;52.85;97853.00;5057449;28;20590;-71
2021/04/10 11:03:49;;;;;;;2.53;2.40;;;;;;;14.09;51.42;97847.31;5061734;28;20202;-71
2021/04/10 11:06:18;;;;;;;2.70;2.50;;;;;;;13.46;51.82;97854.03;5060881;28;20602;-72
2021/04/10 11:08:46;;;;;;;2.73;2.53;;;;;;;13.53;52.05;97846.94;5060782;28;20238;-71
2021/04/10 11:11:14;;;;;;;2.60;2.50;;;;;;;13.64;52.00;97840.31;5060943;28;20207;-72
2021/04/10 11:13:43;;;;;;;3.17;2.80;;;;;;;13.80;51.95;97841.88;5058240;28;20209;-72
2021/04/10 11:16:12;;;;;;;2.67;2.50;;;;;;;14.26;51.23;97840.69;5060642;28;20260;-73
2021/04/10 11:18:39;;;;;;;2.40;2.20;;;;;;;14.09;50.42;97839.31;5059399;28;20214;-73
2021/04/10 11:21:25;;;;;;;2.87;2.60;;;;;;;14.30;49.84;97831.31;5061167;28;20598;-73
2021/04/10 11:24:00;;;;;;;2.60;2.40;;;;;;;15.10;48.34;97826.75;5059322;28;20202;-72
2021/04/10 11:26:37;;;;;;;3.10;2.80;;;;;;;15.53;47.16;97828.38;5061102;28;20230;-73
2021/04/10 11:29:28;;;;;;;10.00;6.83;;;;;;;15.55;47.02;97835.16;5060980;28;20530;-73
2021/04/10 11:32:19;;;;;;;3.07;2.87;;;;;;;15.41;46.59;97830.81;5060562;28;20207;-73
2021/04/10 11:34:58;;;;;;;4.30;2.97;;;;;;;15.69;46.61;97827.19;5041791;28;20264;-72
2021/04/10 11:37:43;;;;;;;3.10;2.80;;;;;;;15.32;46.66;97830.16;5061000;28;20213;-73
2021/04/10 11:40:20;;;;;;;5.30;3.03;;;;;;;15.39;47.73;97822.19;5060290;28;20234;-72
2021/04/10 11:42:50;;;;;;;2.93;2.73;;;;;;;16.24;45.38;97831.66;5058034;28;20205;-72
2021/04/10 11:45:25;;;;;;;2.80;2.60;;;;;;;16.13;44.35;97825.91;5059432;28;20221;-73
2021/04/10 11:48:05;;;;;;;2.97;2.77;;;;;;;14.83;46.80;97829.25;5058445;28;20702;-71
2021/04/10 11:50:42;;;;;;;2.33;2.20;;;;;;;14.57;48.57;97820.03;5055054;28;20234;-70
2021/04/10 11:53:14;;;;;;;2.63;2.40;;;;;;;14.86;47.62;97819.03;5062086;28;20194;-72